sensor_id;sensor_type;location;lat;lon;timestamp;P1;durP1;ratioP1;P2;durP2;ratioP2
46597;SDS011;32318;48.858;8.252;2023-02-28T00:01:25;5.82;;;3.00;;
46597;SDS011;32318;48.858;8.252;2023-02-28T00:09:26;5.32;;;2.70;;
46597;SDS011;32318;48.858;8.252;2023-02-28T00:17:26;6.55;;;2.72;;
46597;SDS011;32318;48.858;8.252;2023-02-28T00:25:26;11.57;;;3.83;;
46597;SDS011;32318;48.858;8.252;2023-02-28T00:33:27;8.23;;;2.83;;
46597;SDS011;32318;48.858;8.252;2023-02-28T00:41:27;8.48;;;2.83;;
46597;SDS011;32318;48.858;8.252;2023-02-28T00:49:28;7.28;;;3.22;;
46597;SDS011;32318;48.858;8.252;2023-02-28T00:57:28;4.63;;;2.47;;
46597;SDS011;32318;48.858;8.252;2023-02-28T01:05:28;7.18;;;3.45;;
46597;SDS011;32318;48.858;8.252;2023-02-28T01:13:28;6.25;;;3.00;;
46597;SDS011;32318;48.858;8.252;2023-02-28T01:21:29;4.60;;;2.53;;
46597;SDS011;32318;48.858;8.252;2023-02-28T01:29:29;6.00;;;2.67;;
46597;SDS011;32318;48.858;8.252;2023-02-28T01:37:30;5.20;;;2.58;;
46597;SDS011;32318;48.858;8.252;2023-02-28T01:45:31;5.97;;;3.47;;
46597;SDS011;32318;48.858;8.252;2023-02-28T01:53:37;6.00;;;2.80;;
46597;SDS011;32318;48.858;8.252;2023-02-28T02:01:41;7.60;;;3.47;;
46597;SDS011;32318;48.858;8.252;2023-02-28T02:09:42;5.65;;;2.13;;
46597;SDS011;32318;48.858;8.252;2023-02-28T02:17:44;5.93;;;3.22;;
46597;SDS011;32318;48.858;8.252;2023-02-28T02:42:21;8.30;;;3.25;;
46597;SDS011;32318;48.858;8.252;2023-02-28T02:50:31;6.53;;;2.95;;
46597;SDS011;32318;48.858;8.252;2023-02-28T02:58:38;6.97;;;2.95;;
46597;SDS011;32318;48.858;8.252;2023-02-28T03:06:42;8.57;;;3.28;;
46597;SDS011;32318;48.858;8.252;2023-02-28T03:23:27;6.03;;;2.97;;
46597;SDS011;32318;48.858;8.252;2023-02-28T03:31:39;10.23;;;2.80;;
46597;SDS011;32318;48.858;8.252;2023-02-28T03:47:52;5.90;;;2.85;;
46597;SDS011;32318;48.858;8.252;2023-02-28T03:56:03;7.60;;;3.90;;
46597;SDS011;32318;48.858;8.252;2023-02-28T04:04:08;8.48;;;3.83;;
46597;SDS011;32318;48.858;8.252;2023-02-28T04:12:09;21.45;;;4.43;;
46597;SDS011;32318;48.858;8.252;2023-02-28T04:20:10;8.95;;;4.63;;
46597;SDS011;32318;48.858;8.252;2023-02-28T04:28:11;8.25;;;4.40;;
46597;SDS011;32318;48.858;8.252;2023-02-28T04:36:11;6.30;;;3.25;;
46597;SDS011;32318;48.858;8.252;2023-02-28T04:44:13;14.18;;;5.07;;
46597;SDS011;32318;48.858;8.252;2023-02-28T04:52:14;11.32;;;5.32;;
46597;SDS011;32318;48.858;8.252;2023-02-28T05:00:14;9.43;;;4.22;;
46597;SDS011;32318;48.858;8.252;2023-02-28T05:08:16;11.18;;;5.18;;
46597;SDS011;32318;48.858;8.252;2023-02-28T05:16:17;5.28;;;2.05;;
46597;SDS011;32318;48.858;8.252;2023-02-28T05:24:17;9.73;;;4.40;;
46597;SDS011;32318;48.858;8.252;2023-02-28T05:32:23;9.30;;;4.10;;
46597;SDS011;32318;48.858;8.252;2023-02-28T05:40:23;9.25;;;3.45;;
46597;SDS011;32318;48.858;8.252;2023-02-28T05:48:23;17.00;;;5.05;;
46597;SDS011;32318;48.858;8.252;2023-02-28T05:56:25;6.50;;;3.08;;
46597;SDS011;32318;48.858;8.252;2023-02-28T06:04:26;11.90;;;4.50;;
46597;SDS011;32318;48.858;8.252;2023-02-28T06:12:27;13.65;;;5.47;;
46597;SDS011;32318;48.858;8.252;2023-02-28T06:20:27;13.30;;;4.55;;
46597;SDS011;32318;48.858;8.252;2023-02-28T06:28:30;8.73;;;4.25;;
46597;SDS011;32318;48.858;8.252;2023-02-28T06:36:31;9.35;;;3.38;;
46597;SDS011;32318;48.858;8.252;2023-02-28T06:44:32;7.97;;;4.15;;
46597;SDS011;32318;48.858;8.252;2023-02-28T06:52:35;8.00;;;3.85;;
46597;SDS011;32318;48.858;8.252;2023-02-28T07:00:38;12.40;;;4.18;;
46597;SDS011;32318;48.858;8.252;2023-02-28T07:08:38;8.93;;;4.10;;
46597;SDS011;32318;48.858;8.252;2023-02-28T07:16:40;10.82;;;4.10;;
46597;SDS011;32318;48.858;8.252;2023-02-28T07:24:40;10.85;;;5.13;;
46597;SDS011;32318;48.858;8.252;2023-02-28T07:32:40;5.32;;;2.70;;
46597;SDS011;32318;48.858;8.252;2023-02-28T07:40:41;12.75;;;5.40;;
46597;SDS011;32318;48.858;8.252;2023-02-28T07:48:41;6.82;;;4.18;;
46597;SDS011;32318;48.858;8.252;2023-02-28T07:56:42;16.77;;;5.63;;
46597;SDS011;32318;48.858;8.252;2023-02-28T08:04:42;10.70;;;5.03;;
46597;SDS011;32318;48.858;8.252;2023-02-28T08:12:43;5.72;;;3.05;;
46597;SDS011;32318;48.858;8.252;2023-02-28T08:20:43;10.93;;;2.70;;
46597;SDS011;32318;48.858;8.252;2023-02-28T08:28:44;12.65;;;4.25;;
46597;SDS011;32318;48.858;8.252;2023-02-28T08:36:44;11.80;;;5.45;;
46597;SDS011;32318;48.858;8.252;2023-02-28T08:44:45;16.15;;;4.63;;
46597;SDS011;32318;48.858;8.252;2023-02-28T08:52:46;7.03;;;3.60;;
46597;SDS011;32318;48.858;8.252;2023-02-28T09:00:46;11.48;;;3.47;;
46597;SDS011;32318;48.858;8.252;2023-02-28T09:08:46;10.00;;;2.92;;
46597;SDS011;32318;48.858;8.252;2023-02-28T09:16:47;24.65;;;6.80;;
46597;SDS011;32318;48.858;8.252;2023-02-28T09:24:48;12.20;;;4.70;;
46597;SDS011;32318;48.858;8.252;2023-02-28T09:32:48;17.70;;;7.05;;
46597;SDS011;32318;48.858;8.252;2023-02-28T09:40:53;14.57;;;7.45;;
46597;SDS011;32318;48.858;8.252;2023-02-28T09:48:56;5.40;;;2.83;;
46597;SDS011;32318;48.858;8.252;2023-02-28T10:13:20;15.38;;;6.75;;
46597;SDS011;32318;48.858;8.252;2023-02-28T10:21:42;21.23;;;7.63;;
46597;SDS011;32318;48.858;8.252;2023-02-28T10:29:50;16.10;;;7.35;;
46597;SDS011;32318;48.858;8.252;2023-02-28T10:37:56;19.48;;;6.78;;
46597;SDS011;32318;48.858;8.252;2023-02-28T10:54:14;10.02;;;4.88;;
46597;SDS011;32318;48.858;8.252;2023-02-28T11:02:30;14.45;;;5.68;;
46597;SDS011;32318;48.858;8.252;2023-02-28T11:10:35;10.18;;;5.32;;
46597;SDS011;32318;48.858;8.252;2023-02-28T11:18:41;13.00;;;6.70;;
46597;SDS011;32318;48.858;8.252;2023-02-28T11:26:46;13.83;;;6.60;;
46597;SDS011;32318;48.858;8.252;2023-02-28T11:35:02;11.38;;;5.68;;
46597;SDS011;32318;48.858;8.252;2023-02-28T11:51:34;20.25;;;7.82;;
46597;SDS011;32318;48.858;8.252;2023-02-28T11:59:46;19.58;;;8.27;;
46597;SDS011;32318;48.858;8.252;2023-02-28T12:08:09;5.18;;;3.15;;
46597;SDS011;32318;48.858;8.252;2023-02-28T12:32:48;9.43;;;4.68;;
46597;SDS011;32318;48.858;8.252;2023-02-28T12:49:46;21.03;;;9.37;;
46597;SDS011;32318;48.858;8.252;2023-02-28T12:58:00;16.88;;;7.97;;
46597;SDS011;32318;48.858;8.252;2023-02-28T13:06:16;16.98;;;8.75;;
46597;SDS011;32318;48.858;8.252;2023-02-28T13:14:29;22.75;;;8.85;;
46597;SDS011;32318;48.858;8.252;2023-02-28T13:22:40;18.08;;;7.85;;
46597;SDS011;32318;48.858;8.252;2023-02-28T13:39:03;13.52;;;6.25;;
46597;SDS011;32318;48.858;8.252;2023-02-28T14:04:33;17.23;;;7.50;;
46597;SDS011;32318;48.858;8.252;2023-02-28T14:12:57;12.18;;;5.68;;
46597;SDS011;32318;48.858;8.252;2023-02-28T14:20:59;10.40;;;4.82;;
46597;SDS011;32318;48.858;8.252;2023-02-28T14:37:20;29.77;;;9.48;;
46597;SDS011;32318;48.858;8.252;2023-02-28T14:45:29;14.15;;;6.13;;
46597;SDS011;32318;48.858;8.252;2023-02-28T14:53:35;22.48;;;7.53;;
46597;SDS011;32318;48.858;8.252;2023-02-28T15:01:37;12.73;;;6.53;;
46597;SDS011;32318;48.858;8.252;2023-02-28T15:09:37;21.95;;;9.30;;
46597;SDS011;32318;48.858;8.252;2023-02-28T15:17:37;18.67;;;9.07;;
46597;SDS011;32318;48.858;8.252;2023-02-28T15:25:37;22.27;;;9.23;;
46597;SDS011;32318;48.858;8.252;2023-02-28T15:33:40;24.48;;;9.90;;
46597;SDS011;32318;48.858;8.252;2023-02-28T15:42:12;20.90;;;8.70;;
46597;SDS011;32318;48.858;8.252;2023-02-28T15:50:19;14.48;;;6.20;;
46597;SDS011;32318;48.858;8.252;2023-02-28T15:58:20;22.33;;;9.30;;
46597;SDS011;32318;48.858;8.252;2023-02-28T16:06:26;14.50;;;6.78;;
46597;SDS011;32318;48.858;8.252;2023-02-28T16:14:32;19.48;;;9.10;;
46597;SDS011;32318;48.858;8.252;2023-02-28T16:22:35;16.88;;;7.57;;
46597;SDS011;32318;48.858;8.252;2023-02-28T16:30:35;32.88;;;11.00;;
46597;SDS011;32318;48.858;8.252;2023-02-28T16:38:36;20.67;;;8.63;;
46597;SDS011;32318;48.858;8.252;2023-02-28T16:46:36;32.70;;;10.50;;
46597;SDS011;32318;48.858;8.252;2023-02-28T16:54:36;31.00;;;12.25;;
46597;SDS011;32318;48.858;8.252;2023-02-28T17:02:37;25.25;;;12.02;;
46597;SDS011;32318;48.858;8.252;2023-02-28T17:10:38;22.17;;;9.68;;
46597;SDS011;32318;48.858;8.252;2023-02-28T17:18:38;24.05;;;10.15;;
46597;SDS011;32318;48.858;8.252;2023-02-28T17:26:39;25.58;;;10.75;;
46597;SDS011;32318;48.858;8.252;2023-02-28T17:34:40;21.02;;;10.85;;
46597;SDS011;32318;48.858;8.252;2023-02-28T17:42:41;23.27;;;9.75;;
46597;SDS011;32318;48.858;8.252;2023-02-28T17:50:41;30.70;;;10.50;;
46597;SDS011;32318;48.858;8.252;2023-02-28T17:58:42;20.35;;;8.23;;
46597;SDS011;32318;48.858;8.252;2023-02-28T18:06:45;29.15;;;10.82;;
46597;SDS011;32318;48.858;8.252;2023-02-28T18:14:49;24.58;;;10.70;;
46597;SDS011;32318;48.858;8.252;2023-02-28T18:22:50;22.17;;;10.40;;
46597;SDS011;32318;48.858;8.252;2023-02-28T18:30:50;25.58;;;10.80;;
46597;SDS011;32318;48.858;8.252;2023-02-28T18:38:50;34.17;;;15.55;;
46597;SDS011;32318;48.858;8.252;2023-02-28T18:46:50;29.23;;;13.00;;
46597;SDS011;32318;48.858;8.252;2023-02-28T18:54:51;27.45;;;11.70;;
46597;SDS011;32318;48.858;8.252;2023-02-28T19:02:54;31.33;;;12.35;;
46597;SDS011;32318;48.858;8.252;2023-02-28T19:10:54;34.88;;;13.05;;
46597;SDS011;32318;48.858;8.252;2023-02-28T19:18:54;28.65;;;13.15;;
46597;SDS011;32318;48.858;8.252;2023-02-28T19:26:54;30.90;;;13.70;;
46597;SDS011;32318;48.858;8.252;2023-02-28T19:34:55;29.38;;;12.95;;
46597;SDS011;32318;48.858;8.252;2023-02-28T19:42:55;29.08;;;12.65;;
46597;SDS011;32318;48.858;8.252;2023-02-28T19:50:59;23.40;;;11.20;;
46597;SDS011;32318;48.858;8.252;2023-02-28T19:59:04;37.92;;;14.30;;
46597;SDS011;32318;48.858;8.252;2023-02-28T20:07:04;36.63;;;13.25;;
46597;SDS011;32318;48.858;8.252;2023-02-28T20:15:05;33.88;;;13.90;;
46597;SDS011;32318;48.858;8.252;2023-02-28T20:23:05;34.92;;;13.55;;
46597;SDS011;32318;48.858;8.252;2023-02-28T20:31:10;33.50;;;14.15;;
46597;SDS011;32318;48.858;8.252;2023-02-28T20:39:15;30.83;;;12.65;;
46597;SDS011;32318;48.858;8.252;2023-02-28T20:47:15;30.38;;;12.70;;
46597;SDS011;32318;48.858;8.252;2023-02-28T20:55:16;49.78;;;18.63;;
46597;SDS011;32318;48.858;8.252;2023-02-28T21:03:16;31.23;;;11.35;;
46597;SDS011;32318;48.858;8.252;2023-02-28T21:11:21;29.38;;;11.82;;
46597;SDS011;32318;48.858;8.252;2023-02-28T21:19:23;33.42;;;13.32;;
46597;SDS011;32318;48.858;8.252;2023-02-28T21:27:23;32.97;;;11.63;;
46597;SDS011;32318;48.858;8.252;2023-02-28T21:35:23;36.47;;;13.57;;
46597;SDS011;32318;48.858;8.252;2023-02-28T21:43:24;33.90;;;13.02;;
46597;SDS011;32318;48.858;8.252;2023-02-28T21:51:31;34.15;;;12.48;;
46597;SDS011;32318;48.858;8.252;2023-02-28T21:59:44;26.83;;;11.68;;
46597;SDS011;32318;48.858;8.252;2023-02-28T22:07:46;35.90;;;12.18;;
46597;SDS011;32318;48.858;8.252;2023-02-28T22:15:47;33.05;;;11.48;;
46597;SDS011;32318;48.858;8.252;2023-02-28T22:23:47;25.60;;;10.35;;
46597;SDS011;32318;48.858;8.252;2023-02-28T22:31:48;28.70;;;11.57;;
46597;SDS011;32318;48.858;8.252;2023-02-28T22:39:49;30.10;;;11.60;;
46597;SDS011;32318;48.858;8.252;2023-02-28T22:47:49;29.65;;;11.35;;
46597;SDS011;32318;48.858;8.252;2023-02-28T22:55:53;24.75;;;11.40;;
46597;SDS011;32318;48.858;8.252;2023-02-28T23:03:55;26.43;;;10.03;;
46597;SDS011;32318;48.858;8.252;2023-02-28T23:11:55;24.90;;;10.47;;
46597;SDS011;32318;48.858;8.252;2023-02-28T23:19:55;27.30;;;10.43;;
46597;SDS011;32318;48.858;8.252;2023-02-28T23:27:56;27.30;;;11.68;;
46597;SDS011;32318;48.858;8.252;2023-02-28T23:35:56;23.52;;;10.38;;
46597;SDS011;32318;48.858;8.252;2023-02-28T23:43:56;26.67;;;10.73;;
46597;SDS011;32318;48.858;8.252;2023-02-28T23:51:57;23.40;;;10.15;;
46597;SDS011;32318;48.858;8.252;2023-02-28T23:59:57;14.30;;;6.30;;
